KGVL/GVL METAR and TAF weather

Enter ICAO airport designator
Station Type Date Time Source
KGVL METAR 2022/11/27 08:53 UTC NOAA

KGVL 270853Z AUTO 08010KT 3SM +RA BR OVC002 10/09 A2986 RMK AO2 PRESFR SLP104 P0010 60014 T01000094 58021


Station Type Date Time Source
KGVL Decoded METAR 2022/11/27 08:53 UTC NOAA

GILMER MEMORIAL AIRPORT, GA, United States (KGVL) 34-16N 83-50W 386M
Nov 27, 2022 - 03:53 AM EST / 2022.11.27 0853 UTC
Wind: from the E (080 degrees) at 12 MPH (10 KT):0
Visibility: 3 mile(s):0
Sky conditions: overcast
Weather: heavy rain; mist
Precipitation last hour: 0.10 inches
Temperature: 50.0 F (10.0 C)
Dew Point: 48.9 F (9.4 C)
Relative Humidity: 96%
Pressure (altimeter): 29.86 in. Hg (1011 hPa)
Pressure tendency: falling rapidly - 0.06 inches (2.1 hPa) lower than three hours ago
ob: KGVL 270853Z AUTO 08010KT 3SM +RA BR OVC002 10/09 A2986 RMK AO2 PRESFR SLP104 P0010 60014 T01000094 58021
cycle: 9

Station Type Date Time Source
KGVL TAF UTC NOAA

Error!

Example: see airport list